Details From BGGH - Nuuk
To CYFB - Iqaluit
Flight Number -
Tags decoded
Created
Modified
Stats Distance 444 nm / 823 km
Max Altitude 0 ft / 0 m
Waypoints 2
Social Downloads 1
Likes 0
Share VATSIM

Download

Looking for another format? Having issues loading an existing format? Contact us
Advertisement - Login to hide

Notes

Requested: BGGH CYFB

Route

BGGH CYFB

ID Type Via Altitude Latitude Longitude Leg Dist Tot Dist Heading (true) Name
O BGGH APT - 0 ft / 0 m 64.19302˚ -51.67645˚ - 0 nm - Nuuk
O CYFB APT - 0 ft / 0 m 63.75657˚ -68.55606˚ 444 nm 444 nm 274° / 259° Iqaluit

Altitude Profile

Advertisement - Login to hide

Weather


0- 5 10 15 20 25 30 35+ Temperature / ° C

Clouds and Precipitation
Forecast for 2017-12-16 12:00 UTC. Updated 2 hours ago

Ground ~20,000 ft ~40,000 ft Winds

BGGH

Details ICAO BGGH (GOH)
Name Nuuk
Region Greenland
Timezone America/Godthab (UTC-3.0)
Stats Elevation 283 ft / 86 m (AMSL)
Location 64.193021° -51.676454°
Runways 1
Magnetic Variation 27.018° W

METAR

BGGH 160850Z AUTO 15006KT 9999NDV BKN031/// M02/M05 Q0981

Decode

TAF

Not found

Departure Runways

ID Width Length Bearing (true) Bearing (mag) Surface Threshold Offset Overrun Length
05 98 ft / 30 m 3,113 ft / 949 m 18.44° 45.46° Asphalt 0 ft / 0 m 0 ft / 0 m
23 98 ft / 30 m 3,113 ft / 949 m 198.44° 225.46° Asphalt 0 ft / 0 m 0 ft / 0 m

CYFB

Details ICAO CYFB (YFB)
Name Iqaluit
Region Canada
Timezone America/Iqaluit (UTC-5.0)
Stats Elevation 110 ft / 34 m (AMSL)
Location 63.756565° -68.556058°
Runways 1
Magnetic Variation 27.541° W

METAR

CYFB 160915Z 32012KT 15SM OVC070 M08/M10 A2916 RMK AC8 SLP878

Decode

TAF

TAF TAF AMD CYFB 160843Z 1608/1706 33015KT 6SM -SN OVC060 TEMPO 1608/1615 3SM -SN OVC020 BECMG 1610/1612 33012KT FM161500 33012KT P6SM SCT050 RMK NXT FCST BY 161200Z

Decode

Destination Runways

ID Width Length Bearing (true) Bearing (mag) Surface Threshold Offset Overrun Length
17 200 ft / 61 m 8,605 ft / 2,623 m 135.58° 163.12° Asphalt 0 ft / 0 m 210 ft / 64 m
35 200 ft / 61 m 8,605 ft / 2,623 m 315.62° 343.16° Asphalt 0 ft / 0 m 243 ft / 74 m

Popular Alternatives